Accueil
METAR-TAF:

METAR-TAF

Aéroports :

Aéroport international de Tozeur-Nefta

Tozeur, Tunisie

latitude: 33-55N, longitude: 008-06E, altitude: 87 m

Observation

Le bulletin a été fait il y a 37 minutes, à 18:00 UTC
Vent 22 kt de est
Température 31°C
Humidité 52%
Pression 1014 hPa
Visibilité: 6000 m
Quelques nuages à une hauteur de 3300 ft

METAR: DTTZ 231800Z 09022KT 6000 FEW033 31/20 Q1014

Heure: 19:37 (18:37 UTC)

Prévision

Le bulletin a été fait il y a 1 heure et 37 minutes, à 17:00 UTC
Prévision valable du 23 à 18 UTC au 24 à 18 UTC
Vent 17 kt de est
Visibilité: 6000 m
Quelques nuages à une hauteur de 3300 ft
Evoluant progressivement
du 24 à 10 UTC au 24 à 12 UTC
Vent 7 kt de est

TAF: DTTZ 231700Z 2318/2418 10017KT 6000 FEW033 BECMG 2410/2412 10007KT

Observations et prévisions météorologiques de plus de 4000 aéroports (messages METAR et TAF).

Les stations disponibles sont représentées par des disques jaunes et rouges sur la carte.

Passer la souris dessus pour voir le nom de la station.

Cliquer dessus pour voir les observations et prévisions météorologiques.

Pour changer de carte: cliquez sur les boutons verts avec une croix noire pour zoomer, sur le bouton vert avec un tiret pour effectuer un zoom arrière, ou sur les flèches vertes pour les cartes adjacentes.


METAR-TAF: